Time;durP1;ratioP1;P1;durP2;ratioP2;P2;SDS_P1;SDS_P2;PMS_P1;PMS_P2;Temp;Humidity;BMP_temperature;BMP_pressure;BME280_temperature;BME280_humidity;BME280_pressure;Samples;Min_cycle;Max_cycle;Signal;HPM_P1;HPM_P2
2021/12/27 00:00:13;;;;;;;13.25;10.77;;;4.20;99.90;;;;;;4973112;28;20023;-73
2021/12/27 00:02:39;;;;;;;13.90;11.23;;;4.20;99.90;;;;;;4973288;28;20034;-75
2021/12/27 00:05:05;;;;;;;12.45;10.25;;;4.20;99.90;;;;;;4990119;28;20030;-74
2021/12/27 00:07:32;;;;;;;12.98;11.60;;;4.20;99.90;;;;;;4973028;28;20091;-73
2021/12/27 00:10:00;;;;;;;14.18;11.38;;;4.20;99.90;;;;;;4990397;28;20026;-73
2021/12/27 00:12:26;;;;;;;15.43;11.52;;;4.20;99.90;;;;;;4991845;28;20029;-72
2021/12/27 00:14:51;;;;;;;13.30;11.40;;;4.20;99.90;;;;;;5003055;28;20026;-73
2021/12/27 00:17:17;;;;;;;14.52;11.57;;;4.30;99.90;;;;;;4989254;28;20475;-73
2021/12/27 00:19:42;;;;;;;17.13;12.63;;;4.30;99.90;;;;;;4973883;28;20022;-73
2021/12/27 00:22:08;;;;;;;14.40;11.43;;;4.30;99.90;;;;;;5002287;28;20048;-73
2021/12/27 00:24:34;;;;;;;12.18;10.45;;;4.30;99.90;;;;;;4978158;28;20548;-74
2021/12/27 00:26:59;;;;;;;13.60;11.32;;;4.30;99.90;;;;;;4977734;28;20401;-73
2021/12/27 00:29:25;;;;;;;13.90;11.80;;;4.30;99.90;;;;;;4988994;28;20450;-73
2021/12/27 00:31:50;;;;;;;13.05;10.80;;;4.30;99.90;;;;;;4990864;28;20034;-73
2021/12/27 00:34:16;;;;;;;15.25;11.75;;;4.30;99.90;;;;;;4972501;28;20039;-74
2021/12/27 00:36:42;;;;;;;14.25;11.20;;;4.30;99.90;;;;;;4987531;28;20105;-75
2021/12/27 00:39:07;;;;;;;14.93;11.68;;;4.30;99.90;;;;;;4975838;28;20064;-73
2021/12/27 00:41:33;;;;;;;13.88;11.15;;;4.30;99.90;;;;;;4993317;28;20153;-73
2021/12/27 00:43:58;;;;;;;12.90;11.00;;;4.30;99.90;;;;;;4992275;28;20552;-74
2021/12/27 00:46:24;;;;;;;13.32;11.15;;;4.30;99.90;;;;;;5009008;28;20039;-74
2021/12/27 00:48:49;;;;;;;12.00;10.32;;;4.30;99.90;;;;;;4994335;28;20034;-74
2021/12/27 00:51:15;;;;;;;13.95;11.50;;;4.30;99.90;;;;;;4993542;28;20409;-74
2021/12/27 00:53:41;;;;;;;10.65;9.50;;;4.40;99.90;;;;;;4974467;28;20018;-74
2021/12/27 00:56:06;;;;;;;13.65;11.43;;;4.40;99.90;;;;;;4992864;28;20375;-73
2021/12/27 00:58:32;;;;;;;14.50;11.48;;;4.40;99.90;;;;;;4974168;28;20475;-74
2021/12/27 01:00:58;;;;;;;12.38;10.18;;;4.40;99.90;;;;;;4975809;28;20026;-73
2021/12/27 01:03:23;;;;;;;11.88;9.95;;;4.40;99.90;;;;;;4975118;28;20081;-74
2021/12/27 01:05:50;;;;;;;13.00;11.07;;;4.40;99.90;;;;;;4993786;28;20077;-74
2021/12/27 01:08:15;;;;;;;11.38;10.13;;;4.40;99.90;;;;;;4973519;28;20045;-74
2021/12/27 01:13:20;;;;;;;11.85;10.05;;;4.50;99.90;;;;;;4993651;28;20042;-73
2021/12/27 01:15:51;;;;;;;11.95;10.00;;;4.50;99.90;;;;;;4971277;28;20023;-75
2021/12/27 01:18:18;;;;;;;10.35;9.10;;;4.50;99.90;;;;;;4973434;28;20489;-74
2021/12/27 01:20:44;;;;;;;11.80;9.82;;;4.50;99.90;;;;;;4992402;28;20563;-73
2021/12/27 01:23:10;;;;;;;11.40;9.57;;;4.50;99.90;;;;;;4990491;28;20133;-74
2021/12/27 01:25:36;;;;;;;12.38;10.65;;;4.50;99.90;;;;;;4993013;28;20402;-75
2021/12/27 01:28:04;;;;;;;11.80;9.82;;;4.50;99.90;;;;;;4993173;28;20030;-74
2021/12/27 01:30:36;;;;;;;12.93;9.90;;;4.50;99.90;;;;;;4974538;28;20109;-74
2021/12/27 01:33:02;;;;;;;12.50;10.93;;;4.50;99.90;;;;;;4992417;28;20033;-74
2021/12/27 01:35:28;;;;;;;13.90;11.10;;;4.50;99.90;;;;;;4974732;28;20030;-74
2021/12/27 01:37:54;;;;;;;12.52;10.18;;;4.50;99.90;;;;;;4974161;28;20026;-74
2021/12/27 01:40:27;;;;;;;12.73;10.43;;;4.50;99.90;;;;;;4975447;28;20014;-75
2021/12/27 01:43:26;;;;;;;14.73;11.15;;;4.50;99.90;;;;;;4990335;28;20058;-74
2021/12/27 01:45:55;;;;;;;13.18;10.75;;;4.40;99.90;;;;;;4974393;28;20495;-74
2021/12/27 01:48:23;;;;;;;11.45;9.90;;;4.50;99.90;;;;;;4972271;28;20130;-73
2021/12/27 01:50:53;;;;;;;12.50;9.68;;;4.50;99.90;;;;;;4973829;28;20065;-75
2021/12/27 01:53:24;;;;;;;13.00;10.50;;;4.50;99.90;;;;;;4974909;28;20113;-74
2021/12/27 01:55:51;;;;;;;15.05;10.90;;;4.50;99.90;;;;;;4992989;28;20030;-73
2021/12/27 01:58:17;;;;;;;12.65;10.52;;;4.50;99.90;;;;;;4974338;28;20034;-75
2021/12/27 02:00:46;;;;;;;12.88;10.20;;;4.50;99.90;;;;;;4992517;28;20121;-75
2021/12/27 02:03:15;;;;;;;11.50;9.80;;;4.50;99.90;;;;;;4992422;28;20030;-75
2021/12/27 02:05:41;;;;;;;12.93;10.85;;;4.50;99.90;;;;;;4974477;28;20034;-75
2021/12/27 02:08:06;;;;;;;13.10;10.85;;;4.50;99.90;;;;;;4992330;28;20038;-74
2021/12/27 02:10:32;;;;;;;13.57;10.80;;;4.50;99.90;;;;;;4992349;28;20114;-74
2021/12/27 02:12:59;;;;;;;13.95;10.65;;;4.50;99.90;;;;;;4974179;28;20026;-74
2021/12/27 02:15:24;;;;;;;10.82;9.23;;;4.50;99.90;;;;;;4974693;28;20030;-74
2021/12/27 02:17:50;;;;;;;12.93;10.20;;;4.50;99.90;;;;;;4992244;28;20030;-74
2021/12/27 02:20:22;;;;;;;13.02;10.90;;;4.60;99.90;;;;;;4992046;28;20031;-73
2021/12/27 02:22:48;;;;;;;13.15;10.70;;;4.60;99.90;;;;;;4992086;28;20105;-74
2021/12/27 02:25:15;;;;;;;10.52;9.40;;;4.60;99.90;;;;;;4973640;28;20056;-75
2021/12/27 02:27:43;;;;;;;11.45;9.80;;;4.60;99.90;;;;;;4992406;28;20114;-74
2021/12/27 02:30:12;;;;;;;11.98;9.40;;;4.60;99.90;;;;;;4974841;28;20033;-74
2021/12/27 02:32:47;;;;;;;11.52;9.95;;;4.60;99.90;;;;;;4973477;28;20040;-74
2021/12/27 02:35:16;;;;;;;11.52;9.05;;;4.60;99.90;;;;;;4974323;28;20121;-75
2021/12/27 02:37:41;;;;;;;10.57;9.48;;;4.60;99.90;;;;;;4991691;28;20022;-74
2021/12/27 02:40:08;;;;;;;12.20;10.35;;;4.60;99.90;;;;;;4973756;28;20030;-74
2021/12/27 02:42:34;;;;;;;12.00;9.90;;;4.60;99.90;;;;;;4973889;28;20037;-74
2021/12/27 02:44:59;;;;;;;11.15;9.65;;;4.60;99.90;;;;;;4974416;28;20363;-74
2021/12/27 02:47:25;;;;;;;11.60;9.70;;;4.60;99.90;;;;;;4973113;28;20514;-74
2021/12/27 02:49:50;;;;;;;11.02;9.40;;;4.70;99.90;;;;;;4971776;28;20022;-74
2021/12/27 02:52:16;;;;;;;11.43;9.90;;;4.60;99.90;;;;;;4972468;28;20023;-74
2021/12/27 02:54:42;;;;;;;9.63;8.35;;;4.60;99.90;;;;;;4972655;28;20022;-76
2021/12/27 02:57:09;;;;;;;10.68;9.23;;;4.70;99.90;;;;;;4974225;28;20601;-76
2021/12/27 02:59:35;;;;;;;10.75;8.50;;;4.70;99.90;;;;;;4991055;28;20491;-74
2021/12/27 03:02:00;;;;;;;10.00;8.80;;;4.70;99.90;;;;;;4968559;28;20041;-76
2021/12/27 03:04:27;;;;;;;10.60;8.80;;;4.70;99.90;;;;;;4993141;28;20036;-75
2021/12/27 03:06:52;;;;;;;10.35;8.65;;;4.70;99.90;;;;;;4986595;28;20034;-75
2021/12/27 03:09:18;;;;;;;11.15;8.80;;;4.70;99.90;;;;;;4990674;28;20490;-74
2021/12/27 03:11:43;;;;;;;10.52;8.73;;;4.70;99.90;;;;;;4974215;28;20018;-74
2021/12/27 03:14:09;;;;;;;9.02;7.75;;;4.70;99.90;;;;;;4990791;28;20023;-75
2021/12/27 03:16:34;;;;;;;9.93;8.77;;;4.70;99.90;;;;;;4973472;28;20037;-74
2021/12/27 03:19:00;;;;;;;11.93;9.38;;;4.70;99.90;;;;;;4980355;28;20037;-74
2021/12/27 03:21:26;;;;;;;9.82;8.60;;;4.70;99.90;;;;;;5009156;28;20030;-74
2021/12/27 03:23:52;;;;;;;10.75;8.88;;;4.70;99.90;;;;;;5010695;28;20034;-73
2021/12/27 03:26:18;;;;;;;11.73;8.73;;;4.70;99.90;;;;;;4992840;28;20541;-74
2021/12/27 03:28:44;;;;;;;11.32;8.43;;;4.70;99.90;;;;;;4992590;28;20038;-74
2021/12/27 03:31:10;;;;;;;9.43;8.43;;;4.70;99.90;;;;;;4992914;28;20033;-75
2021/12/27 03:33:37;;;;;;;11.85;8.68;;;4.70;99.90;;;;;;4993043;28;20030;-75
2021/12/27 03:36:08;;;;;;;8.65;7.60;;;4.80;99.90;;;;;;4992509;28;20018;-75
2021/12/27 03:38:38;;;;;;;10.65;8.60;;;4.80;99.90;;;;;;4992751;28;20030;-74
2021/12/27 03:41:08;;;;;;;10.82;8.98;;;4.80;99.90;;;;;;4993182;28;20406;-74
2021/12/27 03:43:33;;;;;;;8.95;8.05;;;4.80;99.90;;;;;;4992071;28;20525;-75
2021/12/27 03:45:59;;;;;;;11.75;8.80;;;4.80;99.90;;;;;;4991366;28;20026;-74
2021/12/27 03:48:25;;;;;;;11.25;9.35;;;4.80;99.90;;;;;;5007821;28;20061;-75
2021/12/27 03:50:50;;;;;;;11.38;9.77;;;4.70;99.90;;;;;;4990626;28;20026;-74
2021/12/27 03:53:16;;;;;;;10.77;8.93;;;4.70;99.90;;;;;;4991533;28;20030;-74
2021/12/27 03:55:41;;;;;;;10.32;9.05;;;4.80;99.90;;;;;;4992842;28;20052;-75
2021/12/27 03:58:09;;;;;;;10.93;8.70;;;4.80;99.90;;;;;;4992243;28;20390;-74
2021/12/27 04:01:00;;;;;;;11.23;8.65;;;4.80;99.90;;;;;;4992140;28;20431;-74
2021/12/27 04:03:26;;;;;;;9.32;7.70;;;4.80;99.90;;;;;;4992030;28;20053;-74
2021/12/27 04:05:52;;;;;;;10.45;8.77;;;4.80;99.90;;;;;;5010469;28;20410;-74
2021/12/27 04:08:18;;;;;;;9.70;8.70;;;4.80;99.90;;;;;;4992521;28;20030;-75
2021/12/27 04:10:44;;;;;;;13.18;9.25;;;4.80;99.90;;;;;;5009522;28;20030;-75
2021/12/27 04:13:11;;;;;;;10.88;8.40;;;4.90;99.90;;;;;;4994359;28;20037;-74
2021/12/27 04:15:38;;;;;;;9.90;7.97;;;4.80;99.90;;;;;;4996374;28;20032;-76
2021/12/27 04:18:04;;;;;;;11.20;8.95;;;4.80;99.90;;;;;;5013334;28;20524;-75
2021/12/27 04:20:30;;;;;;;10.40;8.52;;;4.80;99.90;;;;;;5013470;28;20034;-74
2021/12/27 04:22:56;;;;;;;11.57;8.40;;;4.90;99.90;;;;;;4996250;28;20506;-75
2021/12/27 04:25:22;;;;;;;11.90;8.85;;;4.80;99.90;;;;;;4995462;28;20033;-76
2021/12/27 04:27:49;;;;;;;10.48;8.48;;;4.90;99.90;;;;;;4995854;28;20115;-76
2021/12/27 04:30:16;;;;;;;12.82;9.75;;;4.90;99.90;;;;;;4995967;28;20032;-76
2021/12/27 04:32:42;;;;;;;10.43;8.45;;;4.90;99.90;;;;;;4994877;28;20025;-76
2021/12/27 04:35:09;;;;;;;11.90;9.82;;;4.90;99.90;;;;;;4996109;28;20025;-75
2021/12/27 04:37:35;;;;;;;11.18;9.35;;;4.90;99.90;;;;;;4995897;28;20069;-75
2021/12/27 04:40:02;;;;;;;12.63;8.80;;;4.90;99.90;;;;;;4995337;28;20022;-76
2021/12/27 04:42:31;;;;;;;10.98;8.85;;;4.90;99.90;;;;;;4995351;28;20026;-75
2021/12/27 04:44:58;;;;;;;16.13;10.70;;;4.90;99.90;;;;;;4996069;28;20044;-75
2021/12/27 04:47:24;;;;;;;11.52;9.68;;;4.90;99.90;;;;;;4995084;28;20124;-74
2021/12/27 04:49:49;;;;;;;12.57;10.43;;;4.90;99.90;;;;;;5013553;28;20029;-75
2021/12/27 04:52:15;;;;;;;12.55;9.98;;;4.90;99.90;;;;;;5013156;28;20038;-75
2021/12/27 04:54:41;;;;;;;12.10;9.82;;;4.90;99.90;;;;;;4995390;28;20025;-75
2021/12/27 04:57:07;;;;;;;10.68;8.57;;;5.00;99.90;;;;;;4995551;28;20052;-75
2021/12/27 04:59:32;;;;;;;13.27;9.68;;;5.00;99.90;;;;;;4995338;28;20049;-75
2021/12/27 05:01:58;;;;;;;14.75;9.73;;;5.00;99.90;;;;;;5012110;28;20056;-75
2021/12/27 05:04:23;;;;;;;12.57;9.45;;;5.00;99.90;;;;;;4995431;28;20113;-76
2021/12/27 05:06:49;;;;;;;12.85;8.63;;;5.00;99.90;;;;;;4995024;28;20018;-76
2021/12/27 05:09:15;;;;;;;13.45;10.60;;;5.00;99.90;;;;;;4994876;28;20487;-75
2021/12/27 05:11:41;;;;;;;13.40;10.40;;;5.00;99.90;;;;;;4995175;28;20033;-75
2021/12/27 05:14:07;;;;;;;11.73;9.82;;;5.00;99.90;;;;;;5012346;28;20029;-74
2021/12/27 05:16:32;;;;;;;13.52;10.52;;;5.00;99.90;;;;;;5012479;28;20018;-74
2021/12/27 05:18:59;;;;;;;12.68;9.43;;;5.00;99.90;;;;;;4995126;28;20363;-74
2021/12/27 05:21:24;;;;;;;11.77;9.45;;;5.00;99.90;;;;;;5011683;28;20108;-73
2021/12/27 05:23:50;;;;;;;10.70;9.35;;;5.00;99.90;;;;;;5013032;28;20089;-75
2021/12/27 05:26:16;;;;;;;12.80;9.90;;;5.00;99.90;;;;;;4995209;28;20026;-74
2021/12/27 05:28:42;;;;;;;11.80;9.15;;;5.10;99.90;;;;;;4994588;28;20041;-74
2021/12/27 05:31:07;;;;;;;14.35;8.80;;;5.10;99.90;;;;;;5012933;28;20026;-75
2021/12/27 05:33:33;;;;;;;12.18;9.60;;;5.10;99.90;;;;;;5012090;28;20536;-74
2021/12/27 05:35:59;;;;;;;11.32;8.77;;;5.10;99.90;;;;;;4994298;28;20021;-75
2021/12/27 05:38:24;;;;;;;11.52;8.57;;;5.10;99.90;;;;;;4994803;28;20022;-75
2021/12/27 05:40:50;;;;;;;10.57;8.40;;;5.10;99.90;;;;;;5012848;28;20473;-74
2021/12/27 05:43:15;;;;;;;10.98;9.68;;;5.10;99.90;;;;;;5011633;28;20110;-76
2021/12/27 05:45:41;;;;;;;12.55;8.73;;;5.10;99.90;;;;;;4994776;28;20018;-74
2021/12/27 05:48:07;;;;;;;14.32;10.30;;;5.10;99.90;;;;;;5012410;28;20065;-74
2021/12/27 05:50:34;;;;;;;10.93;8.93;;;5.10;99.90;;;;;;5011530;28;20057;-74
2021/12/27 05:53:01;;;;;;;10.88;9.43;;;5.10;99.90;;;;;;4994445;28;20029;-74
2021/12/27 05:55:27;;;;;;;12.80;9.52;;;5.20;99.90;;;;;;4994276;28;20104;-75
2021/12/27 05:57:53;;;;;;;11.98;9.05;;;5.10;99.90;;;;;;4994349;28;20129;-75
2021/12/27 06:00:19;;;;;;;11.82;9.45;;;5.10;99.90;;;;;;5011812;28;20022;-76
2021/12/27 06:02:45;;;;;;;11.82;9.13;;;5.20;99.90;;;;;;4994615;28;20375;-74
2021/12/27 06:05:12;;;;;;;10.70;8.98;;;5.10;99.90;;;;;;4993907;28;20033;-75
2021/12/27 06:07:37;;;;;;;11.27;9.30;;;5.20;99.90;;;;;;4993917;28;20539;-75
2021/12/27 06:10:04;;;;;;;10.70;8.93;;;5.20;99.90;;;;;;4993822;28;20495;-75
2021/12/27 06:12:31;;;;;;;10.00;8.90;;;5.10;99.90;;;;;;4993896;28;20034;-75
2021/12/27 06:14:57;;;;;;;11.77;9.15;;;5.20;99.90;;;;;;4994122;28;20030;-75
2021/12/27 06:17:23;;;;;;;11.02;8.70;;;5.20;99.90;;;;;;4993383;28;20068;-75
2021/12/27 06:19:48;;;;;;;10.48;8.80;;;5.20;99.90;;;;;;5011891;28;20368;-75
2021/12/27 06:22:14;;;;;;;11.10;8.85;;;5.20;99.90;;;;;;4993840;28;20103;-75
2021/12/27 06:24:40;;;;;;;10.57;8.85;;;5.20;99.90;;;;;;5010872;28;20506;-74
2021/12/27 06:27:05;;;;;;;10.55;8.68;;;5.20;99.90;;;;;;5011714;28;20030;-74
2021/12/27 06:29:31;;;;;;;11.52;8.75;;;5.20;99.90;;;;;;4993204;28;20049;-74
2021/12/27 06:31:56;;;;;;;11.85;10.10;;;5.20;99.90;;;;;;4993162;28;20064;-75
2021/12/27 06:34:22;;;;;;;10.35;8.00;;;5.20;99.90;;;;;;4993943;28;20478;-75
2021/12/27 06:36:47;;;;;;;10.63;9.18;;;5.20;99.90;;;;;;4993365;28;20018;-75
2021/12/27 06:39:13;;;;;;;10.95;9.27;;;5.30;99.90;;;;;;4992946;28;20025;-74
2021/12/27 06:41:39;;;;;;;10.85;9.13;;;5.30;99.90;;;;;;5011329;28;20382;-74
2021/12/27 06:44:05;;;;;;;10.85;9.00;;;5.30;99.90;;;;;;4993493;28;20025;-74
2021/12/27 06:46:31;;;;;;;10.60;8.68;;;5.30;99.90;;;;;;5010681;28;20049;-75
2021/12/27 06:48:56;;;;;;;11.35;9.15;;;5.30;99.90;;;;;;5011127;28;20083;-75
2021/12/27 06:51:22;;;;;;;9.85;8.65;;;5.30;99.90;;;;;;4993721;28;20057;-75
2021/12/27 06:53:47;;;;;;;12.52;9.18;;;5.30;99.90;;;;;;5010438;28;20022;-75
2021/12/27 06:56:13;;;;;;;11.27;9.25;;;5.30;99.90;;;;;;4993636;28;20481;-74
2021/12/27 06:58:39;;;;;;;10.25;8.68;;;5.30;99.90;;;;;;4993508;28;20390;-75
2021/12/27 07:01:05;;;;;;;10.20;8.75;;;5.30;99.90;;;;;;4983753;28;20018;-75
2021/12/27 07:03:30;;;;;;;11.57;9.23;;;5.40;99.90;;;;;;4989838;28;20042;-76
2021/12/27 07:05:56;;;;;;;11.00;9.60;;;5.40;99.90;;;;;;4973776;28;20238;-75
2021/12/27 07:08:22;;;;;;;10.00;8.38;;;5.40;99.90;;;;;;4991657;28;20475;-75
2021/12/27 07:10:49;;;;;;;11.65;10.15;;;5.40;99.90;;;;;;4986247;28;20040;-74
2021/12/27 07:13:15;;;;;;;11.55;9.25;;;5.40;99.90;;;;;;4990835;28;20037;-74
2021/12/27 07:15:44;;;;;;;11.18;9.95;;;5.40;99.90;;;;;;4973896;28;20026;-74
2021/12/27 07:18:20;;;;;;;9.00;8.00;;;5.40;99.90;;;;;;4991387;28;20483;-74
2021/12/27 07:20:46;;;;;;;12.65;9.10;;;5.40;99.90;;;;;;4976168;28;20026;-74
2021/12/27 07:23:12;;;;;;;10.40;8.70;;;5.50;99.90;;;;;;4992510;28;20124;-74
2021/12/27 07:25:37;;;;;;;10.23;8.68;;;5.40;99.90;;;;;;5010306;28;20037;-75
2021/12/27 07:28:03;;;;;;;9.18;8.20;;;5.40;99.90;;;;;;4992515;28;20033;-75
2021/12/27 07:30:29;;;;;;;9.85;8.85;;;5.50;99.90;;;;;;5008799;28;20014;-75
2021/12/27 07:32:56;;;;;;;11.20;9.25;;;5.50;99.90;;;;;;4991311;28;20080;-73
2021/12/27 07:35:22;;;;;;;10.02;8.90;;;5.50;99.90;;;;;;5009884;28;20029;-74
2021/12/27 07:37:47;;;;;;;15.13;9.15;;;5.50;99.90;;;;;;5002458;28;20030;-73
2021/12/27 07:40:13;;;;;;;11.30;9.25;;;5.50;99.90;;;;;;4973376;28;20030;-74
2021/12/27 07:42:39;;;;;;;9.02;7.93;;;5.60;99.90;;;;;;4973000;28;20025;-73
2021/12/27 07:45:05;;;;;;;9.68;8.02;;;5.60;99.90;;;;;;4991046;28;20038;-73
2021/12/27 07:47:30;;;;;;;11.55;8.98;;;5.60;99.90;;;;;;4972212;28;20030;-74
2021/12/27 07:49:56;;;;;;;9.18;8.18;;;5.60;99.90;;;;;;4998211;28;20044;-74
2021/12/27 07:52:21;;;;;;;8.98;7.90;;;5.60;99.90;;;;;;5004428;28;20026;-74
2021/12/27 07:54:47;;;;;;;11.77;9.55;;;5.60;99.90;;;;;;4977677;28;20025;-74
2021/12/27 07:57:13;;;;;;;11.80;9.65;;;5.60;99.90;;;;;;4992483;28;20018;-73
2021/12/27 07:59:39;;;;;;;11.38;10.18;;;5.60;99.90;;;;;;4981341;28;20045;-73
2021/12/27 08:02:05;;;;;;;15.05;11.57;;;5.60;99.90;;;;;;4990884;28;20027;-74
2021/12/27 08:04:30;;;;;;;14.05;10.93;;;5.60;99.90;;;;;;4972284;28;20034;-74
2021/12/27 08:06:56;;;;;;;12.82;9.80;;;5.60;99.90;;;;;;4973037;28;20037;-74
2021/12/27 08:09:25;;;;;;;11.45;9.13;;;5.60;99.90;;;;;;4989632;28;20380;-73
2021/12/27 08:11:50;;;;;;;13.90;9.85;;;5.60;99.90;;;;;;4988281;28;20019;-74
2021/12/27 08:14:16;;;;;;;13.65;9.55;;;5.70;99.90;;;;;;4971818;28;20640;-74
2021/12/27 08:16:42;;;;;;;9.75;8.75;;;5.70;99.90;;;;;;4972947;28;20062;-76
2021/12/27 08:19:07;;;;;;;10.63;9.52;;;5.70;99.90;;;;;;4971495;28;20018;-74
2021/12/27 08:21:33;;;;;;;12.15;8.80;;;5.70;99.90;;;;;;4989063;28;20114;-75
2021/12/27 08:23:59;;;;;;;11.15;9.02;;;5.70;99.90;;;;;;4972371;28;20030;-75
2021/12/27 08:26:25;;;;;;;9.35;8.35;;;5.80;99.90;;;;;;4972732;28;20030;-76
2021/12/27 08:28:52;;;;;;;11.52;9.43;;;5.80;99.90;;;;;;4990655;28;20093;-76
2021/12/27 08:31:18;;;;;;;12.20;9.90;;;5.80;99.90;;;;;;4971535;28;20030;-76
2021/12/27 08:33:44;;;;;;;12.70;10.80;;;5.90;99.90;;;;;;4972684;28;20041;-76
2021/12/27 08:36:09;;;;;;;11.55;10.15;;;5.90;99.90;;;;;;4972082;28;20027;-75
2021/12/27 08:38:35;;;;;;;11.98;9.82;;;5.90;99.90;;;;;;4972030;28;20419;-73
2021/12/27 08:41:01;;;;;;;11.20;9.45;;;5.90;99.90;;;;;;4971603;28;20026;-73
2021/12/27 08:43:26;;;;;;;11.10;9.23;;;5.90;99.90;;;;;;4989886;28;20409;-74
2021/12/27 08:45:53;;;;;;;10.32;8.45;;;5.90;99.90;;;;;;4982843;28;20492;-74
2021/12/27 08:48:18;;;;;;;10.38;8.65;;;6.00;99.90;;;;;;4993453;28;20033;-75
2021/12/27 08:50:44;;;;;;;12.25;9.20;;;6.00;99.90;;;;;;4976687;28;20030;-75
2021/12/27 08:53:10;;;;;;;10.40;8.65;;;6.00;99.90;;;;;;4986384;28;20037;-72
2021/12/27 08:55:37;;;;;;;11.38;9.15;;;6.00;99.90;;;;;;4992070;28;20037;-74
2021/12/27 08:58:04;;;;;;;12.20;9.80;;;6.00;99.90;;;;;;5009152;28;20037;-73
2021/12/27 09:00:30;;;;;;;9.68;8.73;;;6.00;99.90;;;;;;5009301;28;20096;-74
2021/12/27 09:02:56;;;;;;;8.68;7.70;;;6.00;99.90;;;;;;4974144;28;20033;-76
2021/12/27 09:05:21;;;;;;;9.30;8.30;;;6.10;99.90;;;;;;4969222;28;20031;-75
2021/12/27 09:07:47;;;;;;;10.68;9.23;;;6.10;99.90;;;;;;4956058;28;20035;-75
2021/12/27 09:10:13;;;;;;;8.85;7.95;;;6.10;99.90;;;;;;4972406;28;20023;-74
2021/12/27 09:12:40;;;;;;;9.90;7.88;;;6.10;99.90;;;;;;4972982;28;20027;-74
2021/12/27 09:15:07;;;;;;;10.75;8.95;;;6.20;99.90;;;;;;4967709;28;20023;-73
2021/12/27 09:17:32;;;;;;;9.13;8.05;;;6.20;99.90;;;;;;4990282;28;20032;-76
2021/12/27 09:19:58;;;;;;;11.38;8.40;;;6.20;99.90;;;;;;4973095;28;20394;-73
2021/12/27 09:22:23;;;;;;;11.85;9.07;;;6.20;99.90;;;;;;4993165;28;20054;-74
2021/12/27 09:24:50;;;;;;;10.13;8.90;;;6.20;99.90;;;;;;4991703;28;20034;-74
2021/12/27 09:27:16;;;;;;;9.18;8.10;;;6.30;99.90;;;;;;4989200;28;20446;-75
2021/12/27 09:29:43;;;;;;;8.75;7.85;;;6.30;99.90;;;;;;4973200;28;20034;-74
2021/12/27 09:32:10;;;;;;;10.80;9.05;;;6.30;99.90;;;;;;4990778;28;20023;-73
2021/12/27 09:34:36;;;;;;;10.70;8.88;;;6.30;99.90;;;;;;4983713;28;20426;-74
2021/12/27 09:37:02;;;;;;;9.30;7.72;;;6.30;99.90;;;;;;4990876;28;20034;-76
2021/12/27 09:39:28;;;;;;;10.38;9.18;;;6.40;99.90;;;;;;4992409;28;20022;-75
2021/12/27 09:41:54;;;;;;;9.48;8.20;;;6.40;99.90;;;;;;4989499;28;20501;-77
2021/12/27 09:44:19;;;;;;;10.27;8.63;;;6.40;99.90;;;;;;4994838;28;20056;-79
2021/12/27 09:46:45;;;;;;;8.50;7.47;;;6.40;99.90;;;;;;4994695;28;20040;-78
2021/12/27 09:49:13;;;;;;;9.27;8.32;;;6.40;99.90;;;;;;4991398;28;20440;-76
2021/12/27 09:51:40;;;;;;;10.02;8.85;;;6.40;99.90;;;;;;4992512;28;20049;-76
2021/12/27 09:54:06;;;;;;;10.25;8.45;;;6.50;99.90;;;;;;4974787;28;20495;-75
2021/12/27 09:56:32;;;;;;;11.02;9.48;;;6.50;99.90;;;;;;4974104;28;20044;-77
2021/12/27 09:58:58;;;;;;;9.75;8.40;;;6.60;99.90;;;;;;4969280;28;20034;-74
2021/12/27 10:01:24;;;;;;;11.43;9.02;;;6.60;99.90;;;;;;4992467;28;20026;-74
2021/12/27 10:03:51;;;;;;;11.25;8.90;;;6.60;99.90;;;;;;4974294;28;20027;-74
2021/12/27 10:06:17;;;;;;;10.18;8.60;;;6.50;99.90;;;;;;4974852;28;20022;-74
2021/12/27 10:08:51;;;;;;;10.98;9.13;;;6.50;99.90;;;;;;4991876;28;20109;-77
2021/12/27 10:11:17;;;;;;;9.80;8.80;;;6.40;99.90;;;;;;4972578;28;20038;-77
2021/12/27 10:14:11;;;;;;;9.57;8.57;;;6.30;99.90;;;;;;4992157;28;20026;-75
2021/12/27 10:16:49;;;;;;;9.32;8.32;;;6.30;99.90;;;;;;4955406;28;20458;-73
2021/12/27 10:19:16;;;;;;;10.23;8.68;;;6.30;99.90;;;;;;4969538;28;20022;-75
2021/12/27 10:21:46;;;;;;;9.35;8.45;;;6.30;99.90;;;;;;4991001;28;20038;-74
2021/12/27 10:24:14;;;;;;;8.88;7.72;;;6.30;99.90;;;;;;4972713;28;20026;-75
2021/12/27 10:26:40;;;;;;;9.80;8.80;;;6.40;99.90;;;;;;4991815;28;20153;-76
2021/12/27 10:29:23;;;;;;;10.23;9.13;;;6.50;99.90;;;;;;4991659;28;20034;-73
2021/12/27 10:32:00;;;;;;;10.75;9.63;;;6.60;99.90;;;;;;4956469;28;20032;-75
2021/12/27 10:34:30;;;;;;;9.90;8.82;;;6.70;99.90;;;;;;4978373;28;20065;-74
2021/12/27 10:37:12;;;;;;;9.93;8.90;;;6.80;99.90;;;;;;4991903;28;20069;-75
2021/12/27 10:39:46;;;;;;;8.88;8.00;;;6.90;99.90;;;;;;4971828;28;20022;-77
2021/12/27 10:42:22;;;;;;;9.98;8.40;;;6.90;99.90;;;;;;4973622;28;20463;-75
2021/12/27 10:44:51;;;;;;;9.00;8.10;;;7.00;99.90;;;;;;4990637;28;20034;-75
2021/12/27 10:47:32;;;;;;;9.68;8.52;;;7.00;99.90;;;;;;4973220;28;20046;-76
2021/12/27 10:50:03;;;;;;;9.37;8.37;;;7.10;99.90;;;;;;4973781;28;20037;-75
2021/12/27 10:52:51;;;;;;;10.93;9.27;;;7.20;99.90;;;;;;4973514;28;20378;-76
2021/12/27 10:55:30;;;;;;;9.52;8.10;;;7.20;99.90;;;;;;4991477;28;20267;-75
2021/12/27 10:58:12;;;;;;;9.98;8.60;;;7.30;99.90;;;;;;4973812;28;20478;-76
2021/12/27 11:00:38;;;;;;;9.65;8.48;;;7.30;99.90;;;;;;4973232;28;20030;-75
2021/12/27 11:03:04;;;;;;;9.20;8.07;;;7.40;99.90;;;;;;4991237;28;20068;-76
2021/12/27 11:05:33;;;;;;;8.85;7.95;;;7.30;99.90;;;;;;4990663;28;20069;-75
2021/12/27 11:08:02;;;;;;;8.25;7.45;;;7.30;99.90;;;;;;4990816;28;20478;-75
2021/12/27 11:10:30;;;;;;;8.13;7.25;;;7.30;99.90;;;;;;4990813;28;20021;-76
2021/12/27 11:12:59;;;;;;;8.50;7.60;;;7.30;99.90;;;;;;4989304;28;20030;-75
2021/12/27 11:15:29;;;;;;;9.02;8.05;;;7.20;99.90;;;;;;4988864;28;20030;-75
2021/12/27 11:17:56;;;;;;;9.70;8.27;;;7.10;99.90;;;;;;4974083;28;20113;-75
2021/12/27 11:20:22;;;;;;;9.77;8.40;;;7.00;99.90;;;;;;4973419;28;20142;-77
2021/12/27 11:22:52;;;;;;;9.63;8.63;;;6.90;99.90;;;;;;4973075;28;20085;-87
2021/12/27 11:25:27;;;;;;;9.18;7.70;;;6.80;99.90;;;;;;4972103;28;20030;-80
2021/12/27 11:27:54;;;;;;;7.72;6.93;;;6.80;99.90;;;;;;4972252;28;20045;-86
2021/12/27 11:30:23;;;;;;;9.90;7.40;;;6.80;99.90;;;;;;4988346;28;20033;-92
2021/12/27 11:33:09;;;;;;;11.38;7.07;;;6.90;99.90;;;;;;4968660;28;20076;-84
2021/12/27 11:35:55;;;;;;;7.75;6.60;;;7.10;99.90;;;;;;4972675;28;20488;-82
2021/12/27 11:38:30;;;;;;;7.78;6.95;;;7.20;99.90;;;;;;4956585;28;20037;-81
2021/12/27 11:40:58;;;;;;;9.77;7.57;;;7.40;99.90;;;;;;4990391;28;20538;-82
2021/12/27 11:43:24;;;;;;;9.27;7.75;;;7.40;99.90;;;;;;4970328;28;20034;-78
2021/12/27 11:45:54;;;;;;;9.80;7.55;;;7.50;99.90;;;;;;4953897;28;20023;-75
2021/12/27 11:48:25;;;;;;;9.13;7.72;;;7.50;99.90;;;;;;4970863;28;20057;-78
2021/12/27 11:51:00;;;;;;;7.97;7.18;;;7.60;99.90;;;;;;4971566;28;20089;-78
2021/12/27 11:53:33;;;;;;;11.40;8.10;;;7.60;99.90;;;;;;4967763;28;20031;-73
2021/12/27 11:56:02;;;;;;;8.77;7.82;;;7.70;99.90;;;;;;4971464;28;20023;-75
2021/12/27 11:58:39;;;;;;;7.53;6.38;;;7.70;99.90;;;;;;4971279;28;20031;-75
2021/12/27 12:01:26;;;;;;;7.45;6.72;;;7.80;99.90;;;;;;4972328;28;20027;-74
2021/12/27 12:03:55;;;;;;;7.72;6.93;;;7.90;99.90;;;;;;4953293;28;20034;-80
2021/12/27 12:06:43;;;;;;;8.15;6.82;;;8.00;99.90;;;;;;4971203;28;20027;-74
2021/12/27 12:09:19;;;;;;;7.75;6.78;;;8.00;99.90;;;;;;4970793;28;20042;-75
2021/12/27 12:11:59;;;;;;;7.63;6.45;;;8.10;99.90;;;;;;4982913;28;20180;-76
2021/12/27 12:14:27;;;;;;;8.55;6.68;;;8.10;99.90;;;;;;4977671;28;20029;-74
2021/12/27 12:16:53;;;;;;;7.30;6.50;;;8.10;99.90;;;;;;4985426;28;20153;-77
2021/12/27 12:19:39;;;;;;;7.38;6.13;;;8.10;99.90;;;;;;4987305;28;20019;-78
2021/12/27 12:22:05;;;;;;;7.43;6.53;;;8.20;99.90;;;;;;4972855;28;20193;-79
2021/12/27 12:24:31;;;;;;;7.95;7.00;;;8.20;99.90;;;;;;4988285;28;20033;-79
2021/12/27 12:27:09;;;;;;;7.40;6.28;;;8.20;99.90;;;;;;4972871;28;20031;-79
2021/12/27 12:29:43;;;;;;;6.95;6.20;;;8.20;99.90;;;;;;4971321;28;20517;-79
2021/12/27 12:32:12;;;;;;;7.35;6.65;;;8.30;99.90;;;;;;4971941;28;20031;-77
2021/12/27 12:34:39;;;;;;;7.18;6.40;;;8.30;99.90;;;;;;4957220;28;20092;-78
2021/12/27 12:37:09;;;;;;;7.18;6.47;;;8.40;99.90;;;;;;4955596;28;20058;-86
2021/12/27 12:39:43;;;;;;;7.05;6.35;;;8.40;99.90;;;;;;4957100;28;20062;-77
2021/12/27 12:42:14;;;;;;;6.20;5.60;;;8.40;99.90;;;;;;4985968;28;20019;-82
2021/12/27 12:45:00;;;;;;;7.70;6.93;;;8.50;99.90;;;;;;4957389;28;20066;-95
2021/12/27 12:47:28;;;;;;;7.78;6.78;;;8.50;99.90;;;;;;4956027;28;20027;-86
2021/12/27 12:49:54;;;;;;;7.30;6.53;;;8.50;99.90;;;;;;4982142;28;20026;-77
2021/12/27 12:52:21;;;;;;;7.38;6.47;;;8.60;99.90;;;;;;4974397;28;20374;-88